createdAt,value
2022-10-18T00:00:33.831Z,100741.98
2022-10-18T00:03:25.779Z,100744.38
2022-10-18T00:05:58.204Z,100745.42
2022-10-18T00:08:30.505Z,100740.46
2022-10-18T00:11:02.454Z,100742.56
2022-10-18T00:13:35.062Z,100743.34
2022-10-18T00:16:12.260Z,100742.91
2022-10-18T00:18:48.045Z,100745.85
2022-10-18T00:21:22.432Z,100750.08
2022-10-18T00:23:55.491Z,100748.79
2022-10-18T00:26:29.364Z,100752.00
2022-10-18T00:29:03.395Z,100751.42
2022-10-18T00:31:36.961Z,100752.33
2022-10-18T00:34:12.010Z,100743.94
2022-10-18T00:36:45.331Z,100743.36
2022-10-18T00:39:21.275Z,100740.86
2022-10-18T00:41:53.653Z,100742.52
2022-10-18T00:45:06.796Z,100741.41
2022-10-18T00:47:38.630Z,100742.66
2022-10-18T00:50:11.737Z,100744.80
2022-10-18T00:52:48.053Z,100738.11
2022-10-18T00:55:20.806Z,100734.13
2022-10-18T01:00:30.297Z,100727.66
2022-10-18T01:03:02.467Z,100721.52
2022-10-18T01:05:38.721Z,100716.18
2022-10-18T01:08:36.240Z,100707.43
2022-10-18T01:11:19.676Z,100700.09
2022-10-18T01:14:03.132Z,100689.77
2022-10-18T01:16:40.675Z,100693.17
2022-10-18T01:19:26.820Z,100690.25
2022-10-18T01:22:03.981Z,100684.46
2022-10-18T01:24:56.636Z,100684.00
2022-10-18T01:27:37.274Z,100682.02
2022-10-18T01:30:44.205Z,100673.29
2022-10-18T01:33:22.971Z,100671.80
2022-10-18T01:36:01.920Z,100684.27
2022-10-18T01:38:37.052Z,100700.78
2022-10-18T01:41:14.872Z,100701.33
2022-10-18T01:43:51.448Z,100691.23
2022-10-18T01:46:26.313Z,100688.05
2022-10-18T01:48:59.356Z,100696.54
2022-10-18T01:51:33.898Z,100695.45
2022-10-18T01:54:06.520Z,100691.05
2022-10-18T01:56:51.086Z,100688.76
2022-10-18T01:59:39.196Z,100680.52
2022-10-18T02:02:22.709Z,100674.92
2022-10-18T02:05:03.279Z,100675.20
2022-10-18T02:07:46.658Z,100672.34
2022-10-18T02:10:31.345Z,100666.98
2022-10-18T02:13:03.955Z,100661.21
2022-10-18T02:15:40.195Z,100661.13
2022-10-18T02:18:17.126Z,100668.08
2022-10-18T02:20:49.948Z,100662.16
2022-10-18T02:23:25.654Z,100658.02
2022-10-18T02:25:58.017Z,100654.25
2022-10-18T02:28:30.077Z,100658.20
2022-10-18T02:31:04.761Z,100648.05
2022-10-18T02:33:43.924Z,100652.24
2022-10-18T02:36:25.142Z,100648.45
2022-10-18T02:39:01.534Z,100648.52
2022-10-18T02:41:34.204Z,100649.85
2022-10-18T02:44:06.176Z,100646.42
2022-10-18T02:46:36.786Z,100651.02
2022-10-18T02:49:08.903Z,100653.59
2022-10-18T02:51:40.767Z,100648.05
2022-10-18T02:54:12.635Z,100647.55
2022-10-18T02:56:44.499Z,100649.36
2022-10-18T02:59:16.639Z,100647.09
2022-10-18T03:01:48.590Z,100649.67
2022-10-18T03:04:19.276Z,100653.63
2022-10-18T03:06:51.442Z,100654.77
2022-10-18T03:09:21.844Z,100654.36
2022-10-18T03:11:53.709Z,100655.66
2022-10-18T03:14:25.669Z,100654.45
2022-10-18T03:16:57.751Z,100657.68
2022-10-18T03:19:29.748Z,100663.39
2022-10-18T03:22:00.123Z,100663.38
2022-10-18T03:24:32.087Z,100657.16
2022-10-18T03:27:03.855Z,100658.77
2022-10-18T03:29:35.738Z,100663.63
2022-10-18T03:32:08.195Z,100665.19
2022-10-18T03:34:40.585Z,100668.23
2022-10-18T03:37:12.507Z,100667.10
2022-10-18T03:39:44.444Z,100666.87
2022-10-18T03:42:16.559Z,100669.46
2022-10-18T03:44:46.907Z,100667.27
2022-10-18T03:47:18.697Z,100669.20
2022-10-18T03:49:53.239Z,100672.13
2022-10-18T03:52:33.155Z,100673.75
2022-10-18T03:55:09.669Z,100670.98
2022-10-18T03:57:41.584Z,100668.81
2022-10-18T04:00:15.412Z,100674.20
2022-10-18T04:02:50.702Z,100673.65
2022-10-18T04:05:27.989Z,100677.11
2022-10-18T04:08:00.561Z,100682.14
2022-10-18T04:10:32.415Z,100681.27
2022-10-18T04:13:04.287Z,100679.80
2022-10-18T04:15:36.156Z,100678.17
2022-10-18T04:18:06.947Z,100676.46
2022-10-18T04:20:39.819Z,100677.73
2022-10-18T04:24:22.927Z,100685.30
2022-10-18T04:26:53.753Z,100681.15
2022-10-18T04:29:25.851Z,100680.99
2022-10-18T04:31:57.795Z,100681.15
2022-10-18T04:34:29.714Z,100677.42
2022-10-18T04:37:02.203Z,100677.17
2022-10-18T04:39:34.158Z,100675.13
2022-10-18T04:42:04.818Z,100677.41
2022-10-18T04:44:36.721Z,100677.40
2022-10-18T04:47:08.816Z,100676.63
2022-10-18T04:49:40.822Z,100672.94
2022-10-18T04:52:12.741Z,100670.00
2022-10-18T04:54:44.565Z,100673.08
2022-10-18T04:57:16.727Z,100672.87
2022-10-18T04:59:48.701Z,100669.48
2022-10-18T05:02:20.812Z,100669.39
2022-10-18T05:04:53.241Z,100670.99
2022-10-18T05:07:25.181Z,100671.11
2022-10-18T05:09:57.104Z,100670.84
2022-10-18T05:12:29.601Z,100671.10
2022-10-18T05:15:01.987Z,100667.55
2022-10-18T05:17:34.179Z,100666.59
2022-10-18T05:20:06.956Z,100667.50
2022-10-18T05:22:39.103Z,100670.20
2022-10-18T05:25:10.220Z,100662.23
2022-10-18T05:27:42.004Z,100660.16
2022-10-18T05:30:14.688Z,100665.48
2022-10-18T05:32:46.875Z,100667.55
2022-10-18T05:35:17.337Z,100665.88
2022-10-18T05:37:49.697Z,100664.39
2022-10-18T05:40:21.566Z,100662.39
2022-10-18T05:42:54.090Z,100663.72
2022-10-18T05:45:24.631Z,100663.36
2022-10-18T05:47:56.903Z,100660.31
2022-10-18T05:50:28.783Z,100660.73
2022-10-18T05:53:11.922Z,100663.73
2022-10-18T05:55:44.665Z,100666.17
2022-10-18T05:58:16.745Z,100669.30
2022-10-18T06:00:47.123Z,100672.38
2022-10-18T06:03:19.338Z,100673.71
2022-10-18T06:05:52.660Z,100675.60
2022-10-18T06:08:24.604Z,100675.24
2022-10-18T06:10:56.966Z,100671.19
2022-10-18T06:13:31.144Z,100673.89
2022-10-18T06:16:05.920Z,100675.79
2022-10-18T06:18:38.229Z,100675.53
2022-10-18T06:21:11.045Z,100678.44
2022-10-18T06:23:43.367Z,100676.67
2022-10-18T06:26:15.294Z,100673.48
2022-10-18T06:28:47.424Z,100678.30
2022-10-18T06:31:21.312Z,100677.44
2022-10-18T06:33:53.240Z,100676.86
2022-10-18T06:36:23.661Z,100672.12
2022-10-18T06:38:57.656Z,100672.38
2022-10-18T06:41:29.506Z,100674.90
2022-10-18T06:44:13.747Z,100678.13
2022-10-18T06:46:47.488Z,100679.55
2022-10-18T06:49:19.515Z,100678.23
2022-10-18T06:51:51.411Z,100677.74
2022-10-18T06:54:22.022Z,100682.48
2022-10-18T06:56:56.583Z,100679.37
2022-10-18T06:59:31.155Z,100679.52
2022-10-18T07:02:03.533Z,100684.81
2022-10-18T07:04:35.819Z,100682.92
2022-10-18T07:07:08.060Z,100686.56
2022-10-18T07:09:40.400Z,100679.66
2022-10-18T07:12:12.382Z,100680.46
2022-10-18T07:14:45.679Z,100678.73
2022-10-18T07:17:17.813Z,100677.63
2022-10-18T07:19:49.838Z,100677.30
2022-10-18T07:22:20.067Z,100677.44
2022-10-18T07:24:52.158Z,100679.37
2022-10-18T07:27:24.200Z,100675.91
2022-10-18T07:29:56.042Z,100674.27
2022-10-18T07:32:26.348Z,100673.27
2022-10-18T07:34:58.388Z,100672.12
2022-10-18T07:37:30.683Z,100673.98
2022-10-18T07:40:02.730Z,100672.96
2022-10-18T07:42:35.501Z,100668.20
2022-10-18T07:45:08.667Z,100661.70
2022-10-18T07:47:41.232Z,100659.02
2022-10-18T07:50:13.752Z,100657.02
2022-10-18T07:52:46.106Z,100655.39
2022-10-18T07:55:18.400Z,100659.31
2022-10-18T07:57:50.505Z,100657.25
2022-10-18T08:00:22.891Z,100653.02
2022-10-18T08:02:58.342Z,100652.23
2022-10-18T08:08:09.291Z,100652.93
2022-10-18T08:10:41.375Z,100652.68
2022-10-18T08:13:13.586Z,100656.33
2022-10-18T08:15:45.715Z,100652.70
2022-10-18T08:18:17.785Z,100650.45
2022-10-18T08:20:49.885Z,100647.42
2022-10-18T08:23:21.931Z,100646.77
2022-10-18T08:25:53.783Z,100646.73
2022-10-18T08:28:26.636Z,100648.39
2022-10-18T08:30:58.752Z,100644.73
2022-10-18T08:33:30.627Z,100641.93
2022-10-18T08:36:05.823Z,100639.02
2022-10-18T08:38:39.848Z,100634.99
2022-10-18T08:41:31.001Z,100637.20
2022-10-18T08:44:11.796Z,100631.90
2022-10-18T08:46:48.767Z,100627.08
2022-10-18T08:49:28.599Z,100624.31
2022-10-18T08:52:00.912Z,100622.27
2022-10-18T08:54:38.144Z,100622.06
2022-10-18T08:57:18.117Z,100623.77
2022-10-18T08:59:49.995Z,100622.68
2022-10-18T09:02:34.967Z,100625.83
2022-10-18T09:05:18.418Z,100628.91
2022-10-18T09:08:10.330Z,100626.41
2022-10-18T09:10:54.754Z,100626.48
2022-10-18T09:13:57.761Z,100625.70
2022-10-18T09:16:38.716Z,100623.79
2022-10-18T09:19:23.222Z,100622.94
2022-10-18T09:21:57.477Z,100621.86
2022-10-18T09:24:37.053Z,100620.58
2022-10-18T09:27:16.497Z,100615.95
2022-10-18T09:29:59.864Z,100612.60
2022-10-18T09:32:42.719Z,100610.54
2022-10-18T09:35:19.382Z,100613.39
2022-10-18T09:37:55.246Z,100613.37
2022-10-18T09:40:30.234Z,100604.53
2022-10-18T09:43:07.656Z,100605.20
2022-10-18T09:45:44.107Z,100603.70
2022-10-18T09:48:21.543Z,100599.86
2022-10-18T09:50:59.343Z,100591.35
2022-10-18T09:53:39.831Z,100592.05
2022-10-18T09:56:16.330Z,100584.58
2022-10-18T09:58:51.568Z,100582.49
2022-10-18T10:01:25.646Z,100576.09
2022-10-18T10:03:57.592Z,100570.44
2022-10-18T10:06:31.343Z,100566.57
2022-10-18T10:09:09.253Z,100561.80
2022-10-18T10:11:46.384Z,100556.00
2022-10-18T10:14:23.176Z,100547.50
2022-10-18T10:16:57.930Z,100545.02
2022-10-18T10:19:34.703Z,100539.94
2022-10-18T10:22:10.946Z,100540.94
2022-10-18T10:24:51.626Z,100536.27
2022-10-18T10:27:30.089Z,100533.58
2022-10-18T10:30:07.133Z,100525.98
2022-10-18T10:32:50.309Z,100510.58
2022-10-18T10:35:41.522Z,100502.45
2022-10-18T10:38:28.170Z,100495.13
2022-10-18T10:41:00.746Z,100495.31
2022-10-18T10:43:40.051Z,100490.95
2022-10-18T10:46:15.045Z,100485.84
2022-10-18T10:49:00.618Z,100478.79
2022-10-18T10:51:50.583Z,100475.64
2022-10-18T10:54:35.449Z,100468.40
2022-10-18T10:57:18.097Z,100470.48
2022-10-18T10:59:52.033Z,100477.04
2022-10-18T11:02:30.800Z,100478.85
2022-10-18T11:05:23.384Z,100477.94
2022-10-18T11:07:57.870Z,100465.28
2022-10-18T11:10:35.605Z,100462.67
2022-10-18T11:13:23.334Z,100455.84
2022-10-18T11:16:01.946Z,100446.48
2022-10-18T11:18:38.327Z,100439.04
2022-10-18T11:21:15.970Z,100429.62
2022-10-18T11:23:48.052Z,100426.57
2022-10-18T11:26:46.216Z,100423.54
2022-10-18T11:29:38.045Z,100421.02
2022-10-18T11:32:19.012Z,100419.62
2022-10-18T11:35:05.063Z,100417.06
2022-10-18T11:37:50.646Z,100412.66
2022-10-18T11:40:45.813Z,100410.48
2022-10-18T11:43:30.283Z,100410.15
2022-10-18T11:46:21.912Z,100402.73
2022-10-18T11:49:06.990Z,100403.98
2022-10-18T11:52:07.861Z,100398.68
2022-10-18T11:55:04.812Z,100394.95
2022-10-18T11:57:44.871Z,100390.70
2022-10-18T12:00:39.493Z,100394.02
2022-10-18T12:03:23.626Z,100388.22
2022-10-18T12:05:58.265Z,100386.20
2022-10-18T12:08:35.432Z,100376.84
2022-10-18T12:11:15.507Z,100372.48
2022-10-18T12:13:52.300Z,100368.14
2022-10-18T12:16:45.906Z,100362.94
2022-10-18T12:19:26.292Z,100360.33
2022-10-18T12:22:18.333Z,100352.89
2022-10-18T12:24:50.241Z,100351.48
2022-10-18T12:27:34.761Z,100341.81
2022-10-18T12:30:15.532Z,100344.86
2022-10-18T12:33:03.425Z,100339.94
2022-10-18T12:35:56.817Z,100336.14
2022-10-18T12:38:32.847Z,100322.08
2022-10-18T12:41:06.631Z,100327.34
2022-10-18T12:43:38.484Z,100325.57
2022-10-18T12:46:13.791Z,100320.85
2022-10-18T12:48:51.375Z,100320.42
2022-10-18T12:51:24.463Z,100319.75
2022-10-18T12:54:10.622Z,100320.61
2022-10-18T12:56:46.803Z,100317.41
2022-10-18T12:59:43.886Z,100313.89
2022-10-18T13:02:31.068Z,100311.05
2022-10-18T13:05:40.953Z,100308.91
2022-10-18T13:08:27.305Z,100306.38
2022-10-18T13:11:38.418Z,100303.73
2022-10-18T13:14:31.936Z,100301.02
2022-10-18T13:17:13.590Z,100298.46
2022-10-18T13:20:20.516Z,100299.59
2022-10-18T13:23:11.537Z,100293.89
2022-10-18T13:25:55.486Z,100288.16
2022-10-18T13:28:36.595Z,100293.65
2022-10-18T13:31:19.176Z,100295.83
2022-10-18T13:33:51.338Z,100295.50
2022-10-18T13:36:26.549Z,100294.73
2022-10-18T13:39:20.073Z,100290.56
2022-10-18T13:42:29.570Z,100283.89
2022-10-18T13:45:32.422Z,100272.48
2022-10-18T13:48:35.063Z,100264.54
2022-10-18T13:51:22.379Z,100259.10
2022-10-18T13:54:02.196Z,100256.63
2022-10-18T13:56:47.207Z,100259.62
2022-10-18T13:59:41.724Z,100258.16
2022-10-18T14:02:50.665Z,100258.34
2022-10-18T14:05:42.918Z,100254.08
2022-10-18T14:08:18.546Z,100253.27
2022-10-18T14:11:02.481Z,100259.06
2022-10-18T14:13:44.044Z,100251.92
2022-10-18T14:16:33.101Z,100249.89
2022-10-18T14:19:17.405Z,100239.02
2022-10-18T14:21:55.483Z,100240.07
2022-10-18T14:24:30.150Z,100234.73
2022-10-18T14:27:19.940Z,100236.56
2022-10-18T14:30:08.018Z,100231.36
2022-10-18T14:32:43.700Z,100229.95
2022-10-18T14:35:33.650Z,100231.11
2022-10-18T14:38:07.250Z,100226.19
2022-10-18T14:40:41.133Z,100233.30
2022-10-18T14:43:16.643Z,100232.38
2022-10-18T14:45:51.137Z,100225.80
2022-10-18T14:48:25.566Z,100225.77
2022-10-18T14:51:00.640Z,100225.25
2022-10-18T14:53:38.487Z,100227.89
2022-10-18T14:56:21.507Z,100222.20
2022-10-18T14:58:54.683Z,100219.88
2022-10-18T15:01:30.559Z,100217.48
2022-10-18T15:04:06.927Z,100213.64
2022-10-18T15:06:43.408Z,100215.39
2022-10-18T15:09:21.712Z,100216.44
2022-10-18T15:11:57.886Z,100219.64
2022-10-18T15:14:30.852Z,100220.01
2022-10-18T15:17:08.939Z,100218.48
2022-10-18T15:19:42.899Z,100220.55
2022-10-18T15:22:31.626Z,100214.94
2022-10-18T15:25:15.600Z,100214.54
2022-10-18T15:27:50.387Z,100207.14
2022-10-18T15:30:27.897Z,100206.54
2022-10-18T15:33:02.039Z,100214.64
2022-10-18T15:35:36.077Z,100222.34
2022-10-18T15:38:18.613Z,100234.02
2022-10-18T15:40:51.030Z,100230.55
2022-10-18T15:43:39.223Z,100236.23
2022-10-18T15:46:32.714Z,100247.96
2022-10-18T15:49:52.274Z,100250.45
2022-10-18T15:52:39.533Z,100254.48
2022-10-18T15:55:47.591Z,100255.94
2022-10-18T15:58:25.083Z,100258.47
2022-10-18T16:01:00.096Z,100257.69
2022-10-18T16:03:36.143Z,100260.71
2022-10-18T16:06:12.295Z,100259.88
2022-10-18T16:08:49.430Z,100268.83
2022-10-18T16:11:23.167Z,100272.11
2022-10-18T16:13:58.003Z,100287.30
2022-10-18T16:16:32.477Z,100296.75
2022-10-18T16:19:03.181Z,100295.66
2022-10-18T16:21:38.066Z,100307.98
2022-10-18T16:24:10.864Z,100314.52
2022-10-18T16:26:42.792Z,100326.85
2022-10-18T16:29:16.790Z,100332.15
2022-10-18T16:31:50.955Z,100335.55
2022-10-18T16:34:23.368Z,100344.72
2022-10-18T16:36:56.268Z,100350.91
2022-10-18T16:39:29.262Z,100358.29
2022-10-18T16:42:01.282Z,100362.45
2022-10-18T16:44:33.347Z,100364.95
2022-10-18T16:47:04.081Z,100365.23
2022-10-18T16:49:36.252Z,100371.23
2022-10-18T16:52:08.294Z,100366.91
2022-10-18T16:54:38.754Z,100364.95
2022-10-18T16:57:13.587Z,100366.14
2022-10-18T16:59:52.423Z,100366.02
2022-10-18T17:02:27.043Z,100374.88
2022-10-18T17:04:59.275Z,100374.73
2022-10-18T17:07:33.925Z,100378.94
2022-10-18T17:10:06.888Z,100386.92
2022-10-18T17:12:38.913Z,100391.92
2022-10-18T17:15:10.314Z,100402.75
2022-10-18T17:17:46.187Z,100409.00
2022-10-18T17:20:24.011Z,100413.10
2022-10-18T17:22:56.559Z,100406.37
2022-10-18T17:28:06.193Z,100423.35
2022-10-18T17:30:39.051Z,100425.77
2022-10-18T17:33:11.629Z,100432.59
2022-10-18T17:35:44.395Z,100443.53
2022-10-18T17:38:16.502Z,100449.41
2022-10-18T17:40:49.040Z,100453.16
2022-10-18T17:43:21.234Z,100463.45
2022-10-18T17:45:57.273Z,100470.02
2022-10-18T17:48:29.428Z,100474.95
2022-10-18T17:51:01.459Z,100478.89
2022-10-18T17:53:35.037Z,100468.02
2022-10-18T17:56:09.072Z,100455.15
2022-10-18T17:58:43.561Z,100458.76
2022-10-18T18:01:18.549Z,100455.92
2022-10-18T18:03:51.163Z,100452.39
2022-10-18T18:06:31.659Z,100456.86
2022-10-18T18:09:07.481Z,100464.31
2022-10-18T18:11:44.881Z,100461.21
2022-10-18T18:14:24.762Z,100475.05
2022-10-18T18:17:01.510Z,100487.09
2022-10-18T18:19:35.626Z,100492.14
2022-10-18T18:22:08.919Z,100496.77
2022-10-18T18:24:42.836Z,100498.98
2022-10-18T18:27:16.316Z,100506.05
2022-10-18T18:29:59.735Z,100508.67
2022-10-18T18:32:49.181Z,100510.07
2022-10-18T18:35:31.947Z,100509.46
2022-10-18T18:38:15.802Z,100515.36
2022-10-18T18:41:11.455Z,100528.35
2022-10-18T18:44:57.185Z,100540.05
2022-10-18T18:47:37.180Z,100546.20
2022-10-18T18:50:14.465Z,100552.48
2022-10-18T18:52:47.365Z,100556.53
2022-10-18T18:55:21.659Z,100561.21
2022-10-18T18:57:53.926Z,100564.13
2022-10-18T19:00:26.104Z,100566.06
2022-10-18T19:02:58.106Z,100567.63
2022-10-18T19:05:32.354Z,100562.31
2022-10-18T19:08:06.246Z,100561.70
2022-10-18T19:10:38.401Z,100563.06
2022-10-18T19:13:10.320Z,100563.61
2022-10-18T19:15:43.378Z,100570.09
2022-10-18T19:18:23.175Z,100570.42
2022-10-18T19:21:02.394Z,100576.88
2022-10-18T19:23:34.950Z,100574.67
2022-10-18T19:26:12.176Z,100571.33
2022-10-18T19:28:44.485Z,100577.11
2022-10-18T19:31:16.999Z,100578.16
2022-10-18T19:33:59.406Z,100579.84
2022-10-18T19:36:32.333Z,100580.49
2022-10-18T19:39:07.699Z,100583.70
2022-10-18T19:41:40.083Z,100586.55
2022-10-18T19:44:11.989Z,100582.71
2022-10-18T19:46:44.282Z,100577.27
2022-10-18T19:49:16.861Z,100583.51
2022-10-18T19:51:48.947Z,100584.86
2022-10-18T19:54:20.876Z,100584.69
2022-10-18T19:56:51.315Z,100580.27
2022-10-18T19:59:26.373Z,100582.55
2022-10-18T20:02:00.541Z,100581.19
2022-10-18T20:04:34.947Z,100585.02
2022-10-18T20:07:06.919Z,100578.84
2022-10-18T20:09:37.200Z,100578.58
2022-10-18T20:12:09.296Z,100579.61
2022-10-18T20:14:39.587Z,100580.13
2022-10-18T20:17:12.987Z,100579.86
2022-10-18T20:19:45.128Z,100578.64
2022-10-18T20:22:17.144Z,100574.56
2022-10-18T20:24:47.691Z,100582.64
2022-10-18T20:27:19.669Z,100583.34
2022-10-18T20:29:51.742Z,100583.89
2022-10-18T20:32:22.002Z,100581.25
2022-10-18T20:34:53.888Z,100587.26
2022-10-18T20:37:25.736Z,100589.98
2022-10-18T20:39:57.663Z,100592.42
2022-10-18T20:42:29.550Z,100592.40
2022-10-18T20:45:01.458Z,100590.95
2022-10-18T20:47:53.435Z,100593.77
2022-10-18T20:50:25.299Z,100588.51
2022-10-18T20:52:57.512Z,100585.23
2022-10-18T20:55:31.256Z,100586.80
2022-10-18T20:58:03.665Z,100583.92
2022-10-18T21:00:36.154Z,100585.49
2022-10-18T21:03:08.191Z,100583.99
2022-10-18T21:05:38.522Z,100585.23
2022-10-18T21:08:10.358Z,100587.16
2022-10-18T21:10:42.196Z,100583.36
2022-10-18T21:13:14.055Z,100583.20
2022-10-18T21:15:54.279Z,100581.43
2022-10-18T21:18:28.000Z,100583.13
2022-10-18T21:21:10.241Z,100580.98
2022-10-18T21:23:42.422Z,100580.73
2022-10-18T21:26:17.714Z,100579.84
2022-10-18T21:28:50.709Z,100577.63
2022-10-18T21:31:23.941Z,100575.93
2022-10-18T21:33:57.927Z,100569.66
2022-10-18T21:36:31.826Z,100566.90
2022-10-18T21:39:04.863Z,100564.69
2022-10-18T21:41:37.840Z,100569.34
2022-10-18T21:44:10.822Z,100564.98
2022-10-18T21:46:44.103Z,100558.23
2022-10-18T21:49:16.654Z,100558.73
2022-10-18T21:51:48.552Z,100561.86
2022-10-18T21:54:20.591Z,100556.29
2022-10-18T21:56:52.750Z,100561.53
2022-10-18T21:59:24.316Z,100558.82
2022-10-18T22:01:56.407Z,100565.98
2022-10-18T22:04:28.281Z,100563.91
2022-10-18T22:06:59.536Z,100557.64
2022-10-18T22:09:31.759Z,100557.56
2022-10-18T22:12:02.822Z,100554.14
2022-10-18T22:14:35.184Z,100556.48
2022-10-18T22:17:07.013Z,100553.34
2022-10-18T22:19:38.871Z,100558.41
2022-10-18T22:22:10.898Z,100559.92
2022-10-18T22:24:41.276Z,100562.45
2022-10-18T22:27:13.129Z,100557.04
2022-10-18T22:29:45.026Z,100555.95
2022-10-18T22:32:15.442Z,100555.73
2022-10-18T22:34:47.550Z,100553.89
2022-10-18T22:37:17.801Z,100550.38
2022-10-18T22:39:49.835Z,100548.40
2022-10-18T22:42:20.181Z,100551.61
2022-10-18T22:44:52.203Z,100553.44
2022-10-18T22:47:24.295Z,100553.05
2022-10-18T22:49:56.339Z,100548.42
2022-10-18T22:52:28.394Z,100546.65
2022-10-18T22:55:00.276Z,100543.82
2022-10-18T22:57:32.876Z,100545.06
2022-10-18T23:00:05.577Z,100543.81
2022-10-18T23:02:37.879Z,100535.60
2022-10-18T23:05:11.399Z,100533.89
2022-10-18T23:07:43.189Z,100537.64
2022-10-18T23:10:15.133Z,100535.91
2022-10-18T23:12:45.610Z,100539.82
2022-10-18T23:15:17.861Z,100534.09
2022-10-18T23:17:50.119Z,100538.77
2022-10-18T23:20:22.090Z,100536.85
2022-10-18T23:22:52.366Z,100532.74
2022-10-18T23:25:24.337Z,100529.12
2022-10-18T23:27:56.370Z,100524.52
2022-10-18T23:30:26.671Z,100524.37
2022-10-18T23:32:58.690Z,100522.91
2022-10-18T23:35:29.929Z,100526.64
2022-10-18T23:38:01.775Z,100526.09
2022-10-18T23:40:33.682Z,100526.67
2022-10-18T23:43:05.662Z,100528.55
2022-10-18T23:45:36.055Z,100523.90
2022-10-18T23:48:08.590Z,100524.63
2022-10-18T23:50:40.418Z,100525.08
2022-10-18T23:53:12.438Z,100522.13
2022-10-18T23:55:49.636Z,100522.36
2022-10-18T23:58:21.558Z,100524.76
